Terminal Aerodrome Forecast
Issued by NWS

Home | Current Version | Previous Version | Text Only | Print | Product List | Glossary On
Versions: 1 2 3 4 5 6 7 8 9 10 11 12 13 14 15 16
000
FTUS43 KICT 021536 AAB
TAFHUT
TAF AMD
KHUT 021536Z 0216/0312 05009KT P6SM VCTS SCT030 BKN060CB
      TEMPO 0216/0220 VRB25G35KT 5SM -TSRA BR SCT030 BKN060CB
     FM022100 03008KT P6SM SCT060 BKN150=

USA.gov is the U.S. government's official web portal to all federal, state and local government web resources and services.